Time;durP1;ratioP1;P1;durP2;ratioP2;P2;SDS_P1;SDS_P2;PMS_P1;PMS_P2;Temp;Humidity;BMP_temperature;BMP_pressure;BME280_temperature;BME280_humidity;BME280_pressure;Samples;Min_cycle;Max_cycle;Signal;HPM_P1;HPM_P2
2022/12/06 00:02:08;;;;;;;23.13;15.63;;;;;;;;;;4974668;28;20035;-79
2022/12/06 00:04:34;;;;;;;19.70;13.95;;;;;;;;;;4974812;28;20359;-78
2022/12/06 00:06:59;;;;;;;15.95;12.60;;;;;;;;;;4974885;28;20062;-79
2022/12/06 00:09:28;;;;;;;20.58;13.45;;;;;;;;;;4973092;28;20046;-79
2022/12/06 00:11:55;;;;;;;20.42;13.27;;;;;;;;;;4974276;28;20038;-79
2022/12/06 00:14:21;;;;;;;18.52;13.50;;;;;;;;;;4974548;28;20057;-79
2022/12/06 00:16:47;;;;;;;17.55;12.32;;;;;;;;;;4972480;28;20027;-79
2022/12/06 00:19:15;;;;;;;18.73;13.10;;;;;;;;;;4973945;28;20069;-78
2022/12/06 00:21:42;;;;;;;17.00;12.00;;;;;;;;;;4972384;28;20034;-79
2022/12/06 00:24:11;;;;;;;19.23;12.10;;;;;;;;;;4972946;28;20041;-78
2022/12/06 00:26:41;;;;;;;19.30;13.15;;;;;;;;;;4973038;28;20034;-79
2022/12/06 00:29:11;;;;;;;23.30;14.43;;;;;;;;;;4979563;28;20035;-78
2022/12/06 00:31:36;;;;;;;30.63;15.40;;;;;;;;;;4980887;28;20055;-79
2022/12/06 00:34:03;;;;;;;23.83;13.93;;;;;;;;;;4976440;28;20030;-78
2022/12/06 00:36:31;;;;;;;19.42;13.10;;;;;;;;;;4976703;28;20030;-79
2022/12/06 00:39:05;;;;;;;20.17;12.63;;;;;;;;;;4980252;28;20035;-79
2022/12/06 00:41:31;;;;;;;17.88;12.38;;;;;;;;;;4975004;28;20035;-79
2022/12/06 00:43:57;;;;;;;20.40;13.70;;;;;;;;;;4972702;28;20101;-79
2022/12/06 00:46:28;;;;;;;19.17;13.35;;;;;;;;;;4979269;28;20038;-78
2022/12/06 00:48:56;;;;;;;18.13;12.98;;;;;;;;;;4975171;28;20487;-79
2022/12/06 00:51:23;;;;;;;18.20;12.60;;;;;;;;;;4974037;28;20039;-79
2022/12/06 00:53:49;;;;;;;22.88;13.23;;;;;;;;;;4973313;28;20042;-79
2022/12/06 00:56:15;;;;;;;20.95;12.02;;;;;;;;;;4975115;28;20506;-79
2022/12/06 00:58:41;;;;;;;19.73;13.50;;;;;;;;;;4973298;28;20045;-79
2022/12/06 01:01:22;;;;;;;18.27;11.45;;;;;;;;;;4977024;28;20108;-79
2022/12/06 01:03:52;;;;;;;15.43;12.30;;;;;;;;;;4971423;28;20035;-79
2022/12/06 01:06:22;;;;;;;17.38;12.45;;;;;;;;;;4971924;28;20030;-79
2022/12/06 01:08:48;;;;;;;16.80;11.60;;;;;;;;;;4971632;28;20031;-79
2022/12/06 01:11:15;;;;;;;13.30;9.35;;;;;;;;;;4972632;28;20230;-79
2022/12/06 01:13:42;;;;;;;22.10;12.75;;;;;;;;;;4970351;28;20607;-79
2022/12/06 01:16:11;;;;;;;17.83;12.95;;;;;;;;;;4971681;28;20047;-79
2022/12/06 01:18:37;;;;;;;23.17;12.80;;;;;;;;;;4970452;28;20030;-79
2022/12/06 01:21:08;;;;;;;15.20;11.13;;;;;;;;;;4969490;28;20039;-79
2022/12/06 01:23:34;;;;;;;10.25;9.32;;;;;;;;;;4970559;28;20549;-79
2022/12/06 01:26:00;;;;;;;16.95;11.60;;;;;;;;;;4971817;28;20027;-79
2022/12/06 01:28:25;;;;;;;8.43;7.20;;;;;;;;;;4973104;28;20372;-79
2022/12/06 01:30:51;;;;;;;16.85;11.20;;;;;;;;;;4975643;28;20169;-80
2022/12/06 01:33:17;;;;;;;13.48;9.20;;;;;;;;;;4972311;28;20053;-80
2022/12/06 01:35:42;;;;;;;14.05;10.75;;;;;;;;;;4972034;28;20039;-80
2022/12/06 01:38:09;;;;;;;10.57;9.00;;;;;;;;;;4972153;28;20096;-79
2022/12/06 01:40:42;;;;;;;10.93;8.50;;;;;;;;;;4981536;28;20043;-79
2022/12/06 01:43:34;;;;;;;13.32;9.38;;;;;;;;;;4976613;28;20053;-80
2022/12/06 01:46:06;;;;;;;18.23;8.88;;;;;;;;;;4976480;28;20034;-79
2022/12/06 01:48:32;;;;;;;11.38;9.45;;;;;;;;;;4972738;28;20236;-79
2022/12/06 01:50:59;;;;;;;12.55;9.73;;;;;;;;;;4975663;28;20037;-80
2022/12/06 01:53:25;;;;;;;11.25;9.20;;;;;;;;;;4969882;28;20465;-79
2022/12/06 01:55:51;;;;;;;12.23;10.20;;;;;;;;;;4974625;28;20510;-79
2022/12/06 01:58:23;;;;;;;12.57;11.07;;;;;;;;;;4971981;28;20059;-79
2022/12/06 02:00:49;;;;;;;12.18;9.75;;;;;;;;;;4974379;28;20062;-80
2022/12/06 02:03:18;;;;;;;11.40;9.45;;;;;;;;;;4973512;28;20038;-80
2022/12/06 02:05:44;;;;;;;11.35;9.98;;;;;;;;;;4976365;28;20677;-80
2022/12/06 02:08:12;;;;;;;14.02;10.30;;;;;;;;;;4974830;28;20027;-79
2022/12/06 02:10:38;;;;;;;12.90;9.73;;;;;;;;;;4975853;28;20037;-79
2022/12/06 02:13:05;;;;;;;12.07;9.65;;;;;;;;;;4976254;28;20042;-79
2022/12/06 02:15:46;;;;;;;12.02;10.35;;;;;;;;;;4967562;28;20130;-80
2022/12/06 02:18:18;;;;;;;14.45;10.68;;;;;;;;;;4958083;28;20034;-80
2022/12/06 02:20:49;;;;;;;16.08;11.07;;;;;;;;;;4973277;28;20486;-80
2022/12/06 02:23:47;;;;;;;16.75;11.98;;;;;;;;;;4972555;28;20481;-80
2022/12/06 02:26:20;;;;;;;14.10;10.98;;;;;;;;;;4971233;28;20050;-80
2022/12/06 02:29:46;;;;;;;14.45;11.40;;;;;;;;;;4973101;28;20030;-80
2022/12/06 02:32:30;;;;;;;14.55;10.82;;;;;;;;;;4940712;29;20062;-80
2022/12/06 02:35:07;;;;;;;16.65;11.45;;;;;;;;;;4936744;29;20057;-80
2022/12/06 02:37:39;;;;;;;15.68;11.30;;;;;;;;;;4907729;29;20055;-80
2022/12/06 02:40:09;;;;;;;15.10;10.38;;;;;;;;;;4944449;29;20043;-80
2022/12/06 02:42:43;;;;;;;17.85;10.70;;;;;;;;;;4946507;29;20051;-79
2022/12/06 02:45:13;;;;;;;16.92;11.38;;;;;;;;;;4942590;29;20050;-79
2022/12/06 02:47:39;;;;;;;14.40;11.70;;;;;;;;;;4947791;29;20038;-79
2022/12/06 02:50:13;;;;;;;15.02;10.98;;;;;;;;;;4944518;29;20051;-79
2022/12/06 02:52:43;;;;;;;16.52;11.93;;;;;;;;;;4920243;29;20139;-79
2022/12/06 02:55:09;;;;;;;;;;;;;;;;;;4949694;29;20117;-79
2022/12/06 02:57:56;;;;;;;13.63;10.90;;;;;;;;;;4939514;29;19921;-79
2022/12/06 03:00:35;;;;;;;16.25;10.27;;;;;;;;;;4941247;29;20204;-79
2022/12/06 03:03:30;;;;;;;13.30;10.05;;;;;;;;;;4958779;28;20066;-79
2022/12/06 03:06:02;;;;;;;13.15;9.55;;;;;;;;;;4970483;28;20118;-80
2022/12/06 03:08:46;;;;;;;12.38;10.02;;;;;;;;;;4967061;28;20034;-79
2022/12/06 03:11:12;;;;;;;11.18;9.98;;;;;;;;;;4972180;28;20043;-80
2022/12/06 03:13:50;;;;;;;15.40;10.73;;;;;;;;;;4970299;28;20118;-80
2022/12/06 03:16:25;;;;;;;13.02;10.15;;;;;;;;;;4970933;28;20045;-80
2022/12/06 03:19:17;;;;;;;12.20;9.45;;;;;;;;;;4971746;28;20497;-80
2022/12/06 03:21:49;;;;;;;10.63;9.07;;;;;;;;;;4972513;28;20089;-80
2022/12/06 03:24:15;;;;;;;12.27;9.80;;;;;;;;;;4980719;28;20121;-79
2022/12/06 03:26:46;;;;;;;11.48;8.43;;;;;;;;;;4975815;28;20031;-80
2022/12/06 03:29:15;;;;;;;15.13;9.18;;;;;;;;;;4976281;28;20041;-80
2022/12/06 03:31:41;;;;;;;12.35;9.57;;;;;;;;;;4967599;28;20041;-80
2022/12/06 03:34:16;;;;;;;12.13;10.02;;;;;;;;;;4975059;28;20129;-80
2022/12/06 03:36:44;;;;;;;13.40;10.43;;;;;;;;;;4970423;28;20507;-80
2022/12/06 03:39:13;;;;;;;10.57;8.88;;;;;;;;;;4972170;28;20038;-79
2022/12/06 03:41:52;;;;;;;10.85;9.25;;;;;;;;;;4975030;28;20430;-79
2022/12/06 03:44:18;;;;;;;10.63;9.48;;;;;;;;;;4973350;28;20062;-80
2022/12/06 03:46:48;;;;;;;10.27;9.18;;;;;;;;;;4974824;28;20039;-79
2022/12/06 03:49:19;;;;;;;15.45;9.57;;;;;;;;;;4972237;28;20491;-80
2022/12/06 03:51:45;;;;;;;13.25;9.38;;;;;;;;;;4974527;28;20050;-79
2022/12/06 03:54:11;;;;;;;9.90;8.90;;;;;;;;;;4974477;28;20047;-79
2022/12/06 03:56:37;;;;;;;10.20;8.98;;;;;;;;;;4974816;28;20690;-80
2022/12/06 03:59:05;;;;;;;10.20;8.90;;;;;;;;;;4972909;28;20173;-79
2022/12/06 04:01:30;;;;;;;14.13;8.48;;;;;;;;;;4974706;28;20047;-79
2022/12/06 04:03:56;;;;;;;9.60;8.63;;;;;;;;;;4975273;28;20098;-79
2022/12/06 04:06:22;;;;;;;10.95;9.05;;;;;;;;;;4970737;28;20034;-80
2022/12/06 04:08:47;;;;;;;10.57;8.68;;;;;;;;;;4975106;28;20035;-79
2022/12/06 04:11:13;;;;;;;10.40;8.00;;;;;;;;;;4975849;28;20035;-80
2022/12/06 04:13:39;;;;;;;9.80;8.23;;;;;;;;;;4975521;28;20081;-79
2022/12/06 04:18:50;;;;;;;9.63;8.25;;;;;;;;;;4974378;28;20042;-80
2022/12/06 04:23:56;;;;;;;9.18;8.27;;;;;;;;;;4976195;28;20065;-80
2022/12/06 04:26:23;;;;;;;11.38;8.38;;;;;;;;;;4974266;28;20686;-79
2022/12/06 04:39:48;;;;;;;11.00;8.77;;;;;;;;;;4972987;28;20114;-79
2022/12/06 04:44:58;;;;;;;10.13;8.65;;;;;;;;;;4971911;28;20409;-79
2022/12/06 04:47:24;;;;;;;10.85;8.70;;;;;;;;;;4974522;28;20037;-79
2022/12/06 04:49:50;;;;;;;10.05;9.05;;;;;;;;;;4970995;28;20038;-80
2022/12/06 04:52:16;;;;;;;9.75;8.75;;;;;;;;;;4984015;28;20027;-79
2022/12/06 04:54:42;;;;;;;10.23;9.18;;;;;;;;;;4973281;28;20027;-79
2022/12/06 04:57:11;;;;;;;9.10;8.20;;;;;;;;;;4974820;28;20030;-79
2022/12/06 04:59:39;;;;;;;9.25;8.32;;;;;;;;;;4975559;28;20041;-79
2022/12/06 05:02:05;;;;;;;8.70;7.90;;;;;;;;;;4972596;28;20276;-80
2022/12/06 05:04:31;;;;;;;11.05;8.63;;;;;;;;;;4974956;28;20050;-80
2022/12/06 05:06:57;;;;;;;10.95;8.55;;;;;;;;;;4974721;28;20038;-78
2022/12/06 05:09:23;;;;;;;9.45;8.45;;;;;;;;;;4986891;28;20022;-80
2022/12/06 05:11:49;;;;;;;8.75;7.95;;;;;;;;;;4973617;28;20034;-80
2022/12/06 05:14:14;;;;;;;9.40;8.30;;;;;;;;;;4973508;28;20446;-80
2022/12/06 05:16:40;;;;;;;10.77;8.57;;;;;;;;;;4974375;28;20042;-80
2022/12/06 05:19:06;;;;;;;9.13;8.20;;;;;;;;;;4970953;28;20038;-79
2022/12/06 05:21:32;;;;;;;9.63;8.35;;;;;;;;;;4972989;28;20664;-79
2022/12/06 05:23:57;;;;;;;10.38;9.30;;;;;;;;;;4971484;28;20130;-79
2022/12/06 05:26:26;;;;;;;13.43;9.00;;;;;;;;;;4970478;28;20081;-80
2022/12/06 05:28:52;;;;;;;9.68;8.55;;;;;;;;;;4969107;28;20027;-80
2022/12/06 05:31:18;;;;;;;11.23;9.98;;;;;;;;;;4985407;28;20085;-80
2022/12/06 05:33:45;;;;;;;9.45;8.55;;;;;;;;;;4973308;28;20172;-80
2022/12/06 05:36:20;;;;;;;9.32;8.25;;;;;;;;;;4971812;28;20089;-79
2022/12/06 05:38:46;;;;;;;8.88;7.97;;;;;;;;;;4971889;28;20344;-80
2022/12/06 05:41:12;;;;;;;10.00;8.75;;;;;;;;;;4970722;28;20061;-80
2022/12/06 05:43:38;;;;;;;10.57;9.32;;;;;;;;;;4969362;28;20630;-79
2022/12/06 05:46:04;;;;;;;10.48;9.18;;;;;;;;;;4973379;28;20060;-79
2022/12/06 05:48:30;;;;;;;9.85;8.90;;;;;;;;;;4970301;28;20034;-80
2022/12/06 05:50:55;;;;;;;11.45;9.10;;;;;;;;;;4969371;28;20041;-80
2022/12/06 05:53:21;;;;;;;9.75;8.85;;;;;;;;;;4971150;28;20041;-80
2022/12/06 05:55:47;;;;;;;9.30;8.38;;;;;;;;;;4968861;28;20039;-79
2022/12/06 05:58:14;;;;;;;10.52;9.52;;;;;;;;;;4972725;28;20027;-79
2022/12/06 06:00:39;;;;;;;9.75;8.75;;;;;;;;;;4973607;28;20045;-79
2022/12/06 06:03:05;;;;;;;12.50;9.27;;;;;;;;;;4968928;28;20042;-80
2022/12/06 06:05:31;;;;;;;10.90;9.80;;;;;;;;;;4973049;28;20038;-80
2022/12/06 06:07:57;;;;;;;11.38;9.23;;;;;;;;;;4971946;28;20038;-80
2022/12/06 06:10:23;;;;;;;13.75;9.52;;;;;;;;;;4970148;28;20048;-79
2022/12/06 06:12:49;;;;;;;11.32;9.75;;;;;;;;;;4966719;28;20062;-80
2022/12/06 06:15:15;;;;;;;136.70;74.65;;;;;;;;;;4969635;28;20516;-79
2022/12/06 06:17:42;;;;;;;18.83;14.65;;;;;;;;;;4971857;28;20034;-80
2022/12/06 06:20:10;;;;;;;10.50;9.07;;;;;;;;;;4970057;28;20042;-79
2022/12/06 06:22:37;;;;;;;14.87;10.17;;;;;;;;;;4970331;28;20058;-79
2022/12/06 06:25:04;;;;;;;26.10;23.27;;;;;;;;;;4971605;28;20035;-79
2022/12/06 06:27:36;;;;;;;12.45;10.98;;;;;;;;;;4971906;28;20062;-79
2022/12/06 06:30:05;;;;;;;10.13;9.13;;;;;;;;;;4968853;28;20105;-80
2022/12/06 06:32:30;;;;;;;11.10;8.88;;;;;;;;;;4971930;28;20030;-79
2022/12/06 06:34:56;;;;;;;11.30;9.35;;;;;;;;;;4970858;28;20038;-79
2022/12/06 06:37:21;;;;;;;12.65;11.23;;;;;;;;;;4971929;28;20121;-80
2022/12/06 06:39:47;;;;;;;11.13;9.45;;;;;;;;;;4972110;28;20053;-79
2022/12/06 06:42:12;;;;;;;11.57;9.35;;;;;;;;;;4973097;28;20046;-79
2022/12/06 06:44:38;;;;;;;10.13;9.10;;;;;;;;;;4972634;28;20042;-79
2022/12/06 06:47:04;;;;;;;11.50;10.30;;;;;;;;;;4971707;28;20038;-79
2022/12/06 06:49:30;;;;;;;11.70;9.32;;;;;;;;;;4972730;28;20027;-79
2022/12/06 06:51:56;;;;;;;21.55;14.23;;;;;;;;;;4972735;28;20073;-79
2022/12/06 06:54:22;;;;;;;15.35;10.77;;;;;;;;;;4970996;28;20030;-79
2022/12/06 06:56:48;;;;;;;19.08;13.45;;;;;;;;;;4972347;28;20114;-79
2022/12/06 06:59:14;;;;;;;15.43;13.38;;;;;;;;;;4972125;28;20148;-79
2022/12/06 07:01:39;;;;;;;21.00;14.77;;;;;;;;;;4972484;28;20043;-79
2022/12/06 07:04:05;;;;;;;26.98;15.90;;;;;;;;;;4970261;28;20069;-80
2022/12/06 07:06:30;;;;;;;17.17;11.63;;;;;;;;;;4972173;28;20031;-80
2022/12/06 07:08:56;;;;;;;12.10;9.63;;;;;;;;;;4970844;28;20031;-80
2022/12/06 07:11:22;;;;;;;10.07;8.95;;;;;;;;;;4972129;28;20039;-79
2022/12/06 07:13:48;;;;;;;9.60;8.52;;;;;;;;;;4970227;28;20045;-80
2022/12/06 07:16:15;;;;;;;11.30;8.27;;;;;;;;;;4972040;28;20044;-79
2022/12/06 07:18:43;;;;;;;9.40;8.45;;;;;;;;;;4972163;28;20027;-80
2022/12/06 07:21:11;;;;;;;13.35;10.30;;;;;;;;;;4970350;28;20050;-80
2022/12/06 07:23:37;;;;;;;13.35;10.15;;;;;;;;;;4972300;28;20042;-79
2022/12/06 07:26:03;;;;;;;10.13;9.13;;;;;;;;;;4973258;28;20038;-79
2022/12/06 07:28:29;;;;;;;9.40;8.50;;;;;;;;;;4971987;28;20069;-79
2022/12/06 07:30:55;;;;;;;14.18;9.13;;;;;;;;;;4970193;28;20094;-79
2022/12/06 07:33:20;;;;;;;29.05;13.25;;;;;;;;;;4972507;28;20770;-79
2022/12/06 07:35:53;;;;;;;16.92;10.88;;;;;;;;;;4972994;28;20084;-80
2022/12/06 07:38:19;;;;;;;255.90;70.45;;;;;;;;;;4970570;28;20031;-79
2022/12/06 07:40:44;;;;;;;17.98;11.57;;;;;;;;;;4973055;28;20031;-79
2022/12/06 07:45:54;;;;;;;11.35;10.15;;;;;;;;;;4971240;28;20042;-79
2022/12/06 07:48:20;;;;;;;30.92;20.30;;;;;;;;;;4971777;28;20031;-79
2022/12/06 07:50:46;;;;;;;37.28;23.50;;;;;;;;;;4972452;28;20063;-79
2022/12/06 07:53:12;;;;;;;14.45;11.02;;;;;;;;;;4972286;28;20046;-80
2022/12/06 07:55:38;;;;;;;14.68;10.10;;;;;;;;;;4971131;28;20541;-79
2022/12/06 07:58:03;;;;;;;14.65;11.75;;;;;;;;;;4972202;28;20038;-80
2022/12/06 08:00:30;;;;;;;15.82;12.45;;;;;;;;;;4972276;28;20035;-80
2022/12/06 08:02:56;;;;;;;15.55;11.30;;;;;;;;;;4971906;28;20106;-80
2022/12/06 08:05:21;;;;;;;14.77;11.00;;;;;;;;;;4969549;28;20434;-80
2022/12/06 08:07:47;;;;;;;14.30;10.18;;;;;;;;;;4972355;28;20042;-80
2022/12/06 08:10:13;;;;;;;14.70;10.18;;;;;;;;;;4974916;28;20166;-80
2022/12/06 08:12:38;;;;;;;11.82;9.88;;;;;;;;;;4974260;28;20049;-80
2022/12/06 08:15:11;;;;;;;19.85;13.15;;;;;;;;;;4975141;28;20030;-80
2022/12/06 08:17:39;;;;;;;19.63;13.68;;;;;;;;;;4973497;28;20110;-79
2022/12/06 08:20:06;;;;;;;17.77;13.00;;;;;;;;;;4973460;28;20029;-79
2022/12/06 08:22:32;;;;;;;11.60;10.23;;;;;;;;;;4973436;28;20039;-79
2022/12/06 08:24:58;;;;;;;10.57;9.48;;;;;;;;;;4971611;28;20062;-79
2022/12/06 08:27:24;;;;;;;10.20;9.20;;;;;;;;;;4974154;28;20039;-79
2022/12/06 08:29:49;;;;;;;10.98;9.05;;;;;;;;;;4971823;28;20026;-79
2022/12/06 08:32:15;;;;;;;9.90;8.43;;;;;;;;;;4976372;28;20038;-79
2022/12/06 08:34:41;;;;;;;10.60;8.38;;;;;;;;;;4972621;28;20067;-79
2022/12/06 08:37:07;;;;;;;10.85;8.98;;;;;;;;;;4975944;28;20085;-80
2022/12/06 08:39:33;;;;;;;9.50;8.60;;;;;;;;;;4975013;28;20043;-80
2022/12/06 08:42:02;;;;;;;9.70;8.77;;;;;;;;;;4975936;28;20077;-79
2022/12/06 08:44:30;;;;;;;10.97;9.07;;;;;;;;;;4975864;28;20046;-79
2022/12/06 08:46:57;;;;;;;9.93;8.95;;;;;;;;;;4978074;28;20045;-80
2022/12/06 08:49:24;;;;;;;16.42;8.18;;;;;;;;;;4979199;28;20084;-78
2022/12/06 08:51:50;;;;;;;11.77;9.07;;;;;;;;;;4974231;28;20555;-79
2022/12/06 08:54:18;;;;;;;9.32;8.50;;;;;;;;;;4979405;28;20073;-79
2022/12/06 08:56:44;;;;;;;9.55;8.63;;;;;;;;;;4983677;28;20043;-79
2022/12/06 08:59:10;;;;;;;9.32;8.48;;;;;;;;;;4986898;28;20046;-78
2022/12/06 09:01:36;;;;;;;12.45;9.35;;;;;;;;;;4978654;28;20066;-80
2022/12/06 09:04:03;;;;;;;13.30;9.50;;;;;;;;;;4978138;28;20035;-80
2022/12/06 09:06:29;;;;;;;10.32;9.27;;;;;;;;;;4974382;28;20097;-79
2022/12/06 09:08:57;;;;;;;10.68;9.25;;;;;;;;;;4977630;28;20042;-80
2022/12/06 09:11:23;;;;;;;12.45;9.43;;;;;;;;;;4976184;28;20038;-80
2022/12/06 09:13:49;;;;;;;9.90;8.90;;;;;;;;;;4978726;28;20100;-80
2022/12/06 09:16:20;;;;;;;9.68;8.75;;;;;;;;;;4976096;28;20034;-80
2022/12/06 09:18:46;;;;;;;9.48;8.48;;;;;;;;;;4974759;28;20498;-80
2022/12/06 09:21:15;;;;;;;10.38;8.48;;;;;;;;;;4973960;28;20470;-80
2022/12/06 09:23:41;;;;;;;9.35;8.35;;;;;;;;;;4976294;28;20114;-80
2022/12/06 09:26:07;;;;;;;16.15;9.00;;;;;;;;;;4973823;28;20043;-80
2022/12/06 09:28:35;;;;;;;9.93;8.90;;;;;;;;;;4975263;28;20130;-79
2022/12/06 09:31:02;;;;;;;9.70;8.60;;;;;;;;;;4974685;28;20050;-78
2022/12/06 09:33:28;;;;;;;9.52;8.52;;;;;;;;;;4973680;28;20045;-79
2022/12/06 09:35:54;;;;;;;11.40;8.77;;;;;;;;;;4972423;28;20681;-79
2022/12/06 09:38:22;;;;;;;9.27;8.45;;;;;;;;;;4973272;28;20042;-79
2022/12/06 09:41:00;;;;;;;10.07;9.00;;;;;;;;;;4973723;28;20031;-79
2022/12/06 09:43:41;;;;;;;10.98;9.02;;;;;;;;;;4966979;28;20482;-79
2022/12/06 09:46:45;;;;;;;8.93;8.13;;;;;;;;;;4972965;28;20047;-79
2022/12/06 09:49:43;;;;;;;9.68;8.25;;;;;;;;;;4913022;29;20086;-79
2022/12/06 09:52:27;;;;;;;9.40;8.45;;;;;;;;;;4912038;29;20216;-79
2022/12/06 09:55:39;;;;;;;9.07;7.85;;;;;;;;;;4912622;29;20047;-79
2022/12/06 09:58:07;;;;;;;11.45;9.10;;;;;;;;;;4904626;29;20048;-78
2022/12/06 10:00:44;;;;;;;10.52;9.43;;;;;;;;;;4913932;29;20040;-78
2022/12/06 10:03:16;;;;;;;9.15;8.20;;;;;;;;;;4912854;29;20051;-79
2022/12/06 10:06:01;;;;;;;11.43;9.32;;;;;;;;;;4912520;29;20048;-78
2022/12/06 10:09:04;;;;;;;10.38;8.85;;;;;;;;;;4912406;29;20044;-78
2022/12/06 10:11:32;;;;;;;10.13;9.13;;;;;;;;;;4909184;29;20032;-79
2022/12/06 10:14:28;;;;;;;13.07;9.70;;;;;;;;;;4912555;29;20092;-79
2022/12/06 10:17:05;;;;;;;12.13;9.15;;;;;;;;;;4912623;29;20048;-79
2022/12/06 10:19:40;;;;;;;10.07;9.07;;;;;;;;;;4929308;28;20467;-79
2022/12/06 10:22:11;;;;;;;11.52;9.25;;;;;;;;;;4973329;28;20086;-79
2022/12/06 10:25:26;;;;;;;10.48;9.48;;;;;;;;;;4971842;28;20034;-79
2022/12/06 10:28:11;;;;;;;13.05;9.25;;;;;;;;;;4929451;28;20053;-79
2022/12/06 10:30:49;;;;;;;10.93;9.75;;;;;;;;;;4972690;28;20166;-79
2022/12/06 10:33:27;;;;;;;13.07;9.98;;;;;;;;;;4972277;28;20049;-79
2022/12/06 10:36:07;;;;;;;12.02;10.85;;;;;;;;;;4973888;28;20039;-78
2022/12/06 10:39:41;;;;;;;10.75;9.60;;;;;;;;;;4974520;28;20035;-79
2022/12/06 10:42:36;;;;;;;12.00;9.70;;;;;;;;;;4880561;29;20056;-79
2022/12/06 10:48:35;;;;;;;12.00;10.52;;;;;;;;;;4909594;29;20074;-78
2022/12/06 10:51:06;;;;;;;13.45;10.88;;;;;;;;;;4928310;29;20043;-79
2022/12/06 10:53:39;;;;;;;13.95;10.18;;;;;;;;;;4915088;29;20055;-79
2022/12/06 10:56:37;;;;;;;14.38;11.48;;;;;;;;;;4906306;29;20040;-79
2022/12/06 10:59:26;;;;;;;11.15;10.05;;;;;;;;;;4923929;29;20154;-80
2022/12/06 11:01:56;;;;;;;11.27;10.15;;;;;;;;;;4911484;29;20048;-80
2022/12/06 11:04:28;;;;;;;12.02;10.82;;;;;;;;;;4913115;29;20098;-80
2022/12/06 11:07:05;;;;;;;13.18;11.77;;;;;;;;;;4926021;29;20093;-80
2022/12/06 11:09:36;;;;;;;18.63;12.00;;;;;;;;;;4923801;29;20044;-79
2022/12/06 11:12:15;;;;;;;13.77;11.18;;;;;;;;;;4915373;29;20047;-78
2022/12/06 11:14:46;;;;;;;11.52;10.25;;;;;;;;;;4920142;29;20036;-79
2022/12/06 11:17:18;;;;;;;11.75;10.13;;;;;;;;;;4935884;28;20120;-80
2022/12/06 11:19:49;;;;;;;16.50;11.10;;;;;;;;;;4969727;28;20172;-79
2022/12/06 11:22:33;;;;;;;12.75;10.52;;;;;;;;;;4968938;28;20690;-79
2022/12/06 11:25:15;;;;;;;15.35;10.90;;;;;;;;;;4970042;28;20062;-80
2022/12/06 11:27:48;;;;;;;13.23;11.82;;;;;;;;;;4966303;28;20085;-79
2022/12/06 11:30:17;;;;;;;19.10;12.25;;;;;;;;;;4967606;28;20035;-80
2022/12/06 11:32:44;;;;;;;15.38;11.35;;;;;;;;;;4966914;28;20130;-80
2022/12/06 11:35:17;;;;;;;15.98;12.13;;;;;;;;;;4970453;28;20491;-79
2022/12/06 11:37:45;;;;;;;13.32;11.75;;;;;;;;;;4970264;28;20505;-79
2022/12/06 11:40:30;;;;;;;15.32;11.48;;;;;;;;;;4971788;28;20550;-79
2022/12/06 11:42:59;;;;;;;19.27;11.88;;;;;;;;;;4972945;28;20442;-79
2022/12/06 11:45:33;;;;;;;18.75;13.55;;;;;;;;;;4972893;28;20035;-79
2022/12/06 11:48:01;;;;;;;18.40;12.80;;;;;;;;;;4972080;28;20490;-79
2022/12/06 11:50:32;;;;;;;15.95;12.00;;;;;;;;;;4971719;28;20097;-80
2022/12/06 11:53:01;;;;;;;18.20;12.80;;;;;;;;;;4972939;28;20035;-79
2022/12/06 11:55:41;;;;;;;19.30;12.95;;;;;;;;;;4972029;28;20069;-79
2022/12/06 11:58:10;;;;;;;17.42;12.25;;;;;;;;;;4973031;28;20050;-79
2022/12/06 12:00:37;;;;;;;16.02;12.50;;;;;;;;;;4973865;28;20055;-79
2022/12/06 12:03:03;;;;;;;15.10;11.63;;;;;;;;;;4971951;28;20049;-79
2022/12/06 12:05:35;;;;;;;15.90;12.15;;;;;;;;;;4974259;28;20042;-79
2022/12/06 12:08:18;;;;;;;14.20;11.80;;;;;;;;;;4976285;28;20034;-79
2022/12/06 12:10:55;;;;;;;15.23;12.10;;;;;;;;;;4974084;28;20597;-79
2022/12/06 12:16:19;;;;;;;15.02;11.48;;;;;;;;;;4972237;28;20035;-77
2022/12/06 12:18:56;;;;;;;16.87;11.90;;;;;;;;;;4971530;28;20494;-78
2022/12/06 12:21:31;;;;;;;16.00;11.57;;;;;;;;;;4973080;28;20043;-77
2022/12/06 12:23:57;;;;;;;15.30;11.68;;;;;;;;;;4972850;28;20035;-78
2022/12/06 12:26:32;;;;;;;13.93;11.45;;;;;;;;;;4972400;28;20037;-79
2022/12/06 12:29:07;;;;;;;17.55;12.00;;;;;;;;;;4974541;28;20066;-79
2022/12/06 12:31:45;;;;;;;15.05;11.65;;;;;;;;;;4973346;28;20046;-79
2022/12/06 12:34:24;;;;;;;15.05;11.27;;;;;;;;;;4973402;28;20054;-79
2022/12/06 12:36:59;;;;;;;13.82;10.38;;;;;;;;;;4974658;28;20043;-80
2022/12/06 12:39:31;;;;;;;13.10;10.70;;;;;;;;;;4975052;28;20039;-79
2022/12/06 12:41:57;;;;;;;12.10;9.90;;;;;;;;;;4975491;28;20550;-78
2022/12/06 12:44:29;;;;;;;13.85;11.00;;;;;;;;;;4975609;28;20046;-79
2022/12/06 12:47:17;;;;;;;14.88;11.80;;;;;;;;;;4977207;28;20740;-78
2022/12/06 12:49:43;;;;;;;9.90;8.90;;;;;;;;;;4981406;28;20134;-78
2022/12/06 12:52:30;;;;;;;13.98;11.38;;;;;;;;;;4972323;28;20819;-78
2022/12/06 12:55:20;;;;;;;15.88;11.95;;;;;;;;;;4973136;28;20042;-78
2022/12/06 12:57:52;;;;;;;18.20;12.05;;;;;;;;;;4977408;28;20042;-80
2022/12/06 13:00:33;;;;;;;18.58;10.00;;;;;;;;;;4972638;28;20066;-78
2022/12/06 13:03:21;;;;;;;13.52;10.45;;;;;;;;;;4973105;28;20030;-78
2022/12/06 13:05:47;;;;;;;11.88;9.70;;;;;;;;;;4973598;28;20126;-80
2022/12/06 13:08:28;;;;;;;10.80;9.70;;;;;;;;;;4972489;28;20525;-80
2022/12/06 13:10:57;;;;;;;11.00;8.43;;;;;;;;;;4973210;28;20042;-80
2022/12/06 13:13:29;;;;;;;11.45;9.27;;;;;;;;;;4976276;28;20037;-79
2022/12/06 13:15:57;;;;;;;14.50;10.18;;;;;;;;;;4978139;28;20046;-78
2022/12/06 13:18:30;;;;;;;10.50;9.38;;;;;;;;;;4988393;28;20057;-77
2022/12/06 13:20:59;;;;;;;10.25;9.25;;;;;;;;;;4991623;28;20042;-78
2022/12/06 13:23:33;;;;;;;10.13;9.13;;;;;;;;;;4987823;28;20046;-78
2022/12/06 13:26:24;;;;;;;12.45;9.75;;;;;;;;;;4971640;28;20046;-79
2022/12/06 13:28:53;;;;;;;13.18;9.07;;;;;;;;;;4972733;28;20042;-79
2022/12/06 13:31:22;;;;;;;;;;;;;;;;;;4974498;28;20038;-79
2022/12/06 13:33:51;;;;;;;9.20;8.30;;;;;;;;;;4971311;28;19922;-79
2022/12/06 13:36:19;;;;;;;10.57;9.48;;;;;;;;;;4971519;28;20054;-80
2022/12/06 13:38:45;;;;;;;10.13;9.13;;;;;;;;;;4973201;28;20113;-79
2022/12/06 13:44:49;;;;;;;12.45;8.93;;;;;;;;;;4973196;28;20049;-79
2022/12/06 13:47:48;;;;;;;9.80;8.80;;;;;;;;;;4972880;28;20039;-79
2022/12/06 13:50:16;;;;;;;9.35;8.40;;;;;;;;;;4971104;28;20046;-80
2022/12/06 13:52:42;;;;;;;11.40;8.88;;;;;;;;;;4971321;28;20061;-78
2022/12/06 13:55:37;;;;;;;10.40;8.65;;;;;;;;;;4973580;28;20035;-79
2022/12/06 13:58:02;;;;;;;10.48;8.65;;;;;;;;;;4936004;28;20079;-78
2022/12/06 14:00:28;;;;;;;9.23;8.32;;;;;;;;;;4972111;28;20133;-79
2022/12/06 14:02:58;;;;;;;9.57;7.97;;;;;;;;;;4973210;28;20068;-79
2022/12/06 14:06:01;;;;;;;9.30;8.32;;;;;;;;;;4972410;28;20058;-79
2022/12/06 14:08:39;;;;;;;9.00;8.07;;;;;;;;;;4970187;28;20414;-79
2022/12/06 14:11:14;;;;;;;8.95;8.05;;;;;;;;;;4972296;28;20089;-77
2022/12/06 14:13:41;;;;;;;8.32;7.53;;;;;;;;;;4971577;28;20054;-78
2022/12/06 14:16:09;;;;;;;9.40;7.40;;;;;;;;;;4969488;28;20039;-77
2022/12/06 14:18:39;;;;;;;8.90;8.00;;;;;;;;;;4971568;28;20040;-78
2022/12/06 14:21:04;;;;;;;9.48;7.63;;;;;;;;;;4971068;28;20031;-80
2022/12/06 14:23:34;;;;;;;13.13;8.23;;;;;;;;;;4971563;28;20042;-79
2022/12/06 14:26:16;;;;;;;11.90;8.45;;;;;;;;;;4970602;28;20031;-79
2022/12/06 14:28:42;;;;;;;9.55;8.52;;;;;;;;;;4972575;28;20030;-79
2022/12/06 14:31:23;;;;;;;8.85;8.13;;;;;;;;;;4971492;28;20057;-76
2022/12/06 14:33:49;;;;;;;8.88;8.02;;;;;;;;;;4973069;28;20034;-77
2022/12/06 14:36:31;;;;;;;9.75;8.65;;;;;;;;;;4971057;28;20043;-79
2022/12/06 14:39:00;;;;;;;9.75;7.88;;;;;;;;;;4971784;28;20045;-78
2022/12/06 14:44:18;;;;;;;9.15;8.25;;;;;;;;;;4970181;28;20116;-78
2022/12/06 14:46:45;;;;;;;8.88;8.02;;;;;;;;;;4972361;28;20043;-80
2022/12/06 14:51:59;;;;;;;10.18;9.05;;;;;;;;;;4970102;28;20113;-79
2022/12/06 14:54:30;;;;;;;9.00;8.18;;;;;;;;;;4968909;28;20862;-79
2022/12/06 14:56:56;;;;;;;8.60;7.80;;;;;;;;;;4970622;28;20046;-79
2022/12/06 14:59:24;;;;;;;9.27;8.18;;;;;;;;;;4968346;28;20034;-79
2022/12/06 15:01:53;;;;;;;9.27;8.48;;;;;;;;;;4971015;28;20085;-80
2022/12/06 15:04:33;;;;;;;7.78;7.00;;;;;;;;;;4970723;28;20042;-80
2022/12/06 15:06:59;;;;;;;8.70;7.88;;;;;;;;;;4971059;28;20030;-79
2022/12/06 15:09:29;;;;;;;8.85;8.05;;;;;;;;;;4968995;28;20027;-79
2022/12/06 15:15:32;;;;;;;9.38;8.50;;;;;;;;;;4970673;28;20561;-78
2022/12/06 15:18:08;;;;;;;9.57;7.72;;;;;;;;;;4974658;28;20043;-79
2022/12/06 15:20:34;;;;;;;10.68;8.98;;;;;;;;;;4974578;28;20030;-77
2022/12/06 15:22:59;;;;;;;8.75;7.80;;;;;;;;;;4968859;28;20138;-78
2022/12/06 15:25:25;;;;;;;10.38;8.85;;;;;;;;;;4976169;28;20102;-79
2022/12/06 15:27:50;;;;;;;9.52;8.63;;;;;;;;;;4977748;28;20042;-79
2022/12/06 15:30:16;;;;;;;9.23;8.43;;;;;;;;;;4976771;28;20031;-79
2022/12/06 15:32:42;;;;;;;9.07;8.23;;;;;;;;;;4977202;28;20408;-79